createdAt,value
2017-03-21T00:00:29.035Z,0
2017-03-21T00:01:09.530Z,0
2017-03-21T00:01:50.041Z,0
2017-03-21T00:02:30.739Z,0
2017-03-21T00:03:11.205Z,0
2017-03-21T00:03:51.714Z,0
2017-03-21T00:04:32.207Z,0
2017-03-21T00:05:12.667Z,0
2017-03-21T00:05:53.149Z,0
2017-03-21T00:06:33.601Z,0
2017-03-21T00:07:14.100Z,0
2017-03-21T00:07:54.576Z,0
2017-03-21T00:08:35.025Z,0
2017-03-21T00:09:15.498Z,0
2017-03-21T00:09:55.996Z,0
2017-03-21T00:10:36.510Z,0
2017-03-21T00:11:17.001Z,0
2017-03-21T00:11:57.500Z,0
2017-03-21T00:12:37.962Z,0
2017-03-21T00:13:18.497Z,0
2017-03-21T00:13:59.028Z,0
2017-03-21T00:14:39.484Z,0
2017-03-21T00:15:19.954Z,0
2017-03-21T00:16:00.409Z,0
2017-03-21T00:16:40.894Z,0
2017-03-21T00:17:21.379Z,0
2017-03-21T00:18:01.879Z,0
2017-03-21T00:18:42.343Z,0
2017-03-21T00:19:22.849Z,0
2017-03-21T00:20:03.361Z,0
2017-03-21T00:20:43.853Z,0
2017-03-21T00:21:24.330Z,0
2017-03-21T00:22:04.843Z,0
2017-03-21T00:22:45.308Z,0
2017-03-21T00:23:25.810Z,0
2017-03-21T00:24:06.293Z,0
2017-03-21T00:24:46.769Z,0
2017-03-21T00:25:27.248Z,0
2017-03-21T00:26:07.724Z,0
2017-03-21T00:26:48.208Z,0
2017-03-21T00:27:28.729Z,0
2017-03-21T00:28:09.197Z,0
2017-03-21T00:28:49.725Z,0
2017-03-21T00:29:30.258Z,0
2017-03-21T00:30:10.726Z,0
2017-03-21T00:30:51.186Z,0
2017-03-21T00:31:31.667Z,0
2017-03-21T00:32:12.163Z,0
2017-03-21T00:32:52.605Z,0
2017-03-21T00:33:33.093Z,0
2017-03-21T00:34:13.589Z,0
2017-03-21T00:34:54.077Z,0
2017-03-21T00:35:34.575Z,0
2017-03-21T00:36:15.066Z,0
2017-03-21T00:36:55.536Z,0
2017-03-21T00:37:36.008Z,0
2017-03-21T00:38:16.488Z,0
2017-03-21T00:38:56.954Z,0
2017-03-21T00:39:37.449Z,0
2017-03-21T00:40:20.762Z,0
2017-03-21T00:41:01.256Z,0
2017-03-21T00:41:41.731Z,0
2017-03-21T00:42:22.197Z,0
2017-03-21T00:43:02.689Z,0
2017-03-21T00:43:43.162Z,0
2017-03-21T00:44:23.646Z,0
2017-03-21T00:45:04.139Z,0
2017-03-21T00:45:44.616Z,0
2017-03-21T00:46:25.132Z,0
2017-03-21T00:47:05.597Z,0
2017-03-21T00:47:46.072Z,0
2017-03-21T00:48:26.553Z,0
2017-03-21T00:49:07.029Z,0
2017-03-21T00:49:47.567Z,0
2017-03-21T00:50:28.035Z,0
2017-03-21T00:51:08.537Z,0
2017-03-21T00:51:49.026Z,0
2017-03-21T00:52:29.483Z,0
2017-03-21T00:53:09.958Z,0
2017-03-21T00:53:50.440Z,0
2017-03-21T00:54:30.928Z,0
2017-03-21T00:55:11.424Z,0
2017-03-21T00:55:51.896Z,0
2017-03-21T00:56:32.394Z,0
2017-03-21T00:57:12.832Z,0
2017-03-21T00:57:53.320Z,0
2017-03-21T00:58:33.803Z,0
2017-03-21T00:59:14.263Z,0
2017-03-21T00:59:54.756Z,0
2017-03-21T01:00:35.231Z,0
2017-03-21T01:01:15.689Z,0
2017-03-21T01:01:56.169Z,0
2017-03-21T01:02:36.619Z,0
2017-03-21T01:03:17.099Z,0
2017-03-21T01:03:57.595Z,0
2017-03-21T01:04:38.065Z,0
2017-03-21T01:05:18.555Z,0
2017-03-21T01:05:59.032Z,0
2017-03-21T01:06:39.526Z,0
2017-03-21T01:07:20.000Z,0
2017-03-21T01:08:00.491Z,0
2017-03-21T01:08:40.960Z,0
2017-03-21T01:09:21.449Z,0
2017-03-21T01:10:01.936Z,0
2017-03-21T01:10:42.380Z,0
2017-03-21T01:11:22.880Z,0
2017-03-21T01:12:03.384Z,0
2017-03-21T01:12:43.852Z,0
2017-03-21T01:13:24.345Z,0
2017-03-21T01:14:04.829Z,0
2017-03-21T01:14:45.324Z,0
2017-03-21T01:15:25.795Z,0
2017-03-21T01:16:06.316Z,0
2017-03-21T01:16:46.816Z,0
2017-03-21T01:17:27.300Z,0
2017-03-21T01:18:07.764Z,0
2017-03-21T01:18:48.261Z,0
2017-03-21T01:19:28.794Z,0
2017-03-21T01:20:09.242Z,0
2017-03-21T01:20:49.754Z,0
2017-03-21T01:21:30.206Z,0
2017-03-21T01:22:10.693Z,0
2017-03-21T01:24:29.092Z,0
2017-03-21T01:25:09.566Z,0
2017-03-21T01:25:50.037Z,0
2017-03-21T01:26:30.492Z,0
2017-03-21T01:27:10.956Z,0
2017-03-21T01:27:51.434Z,0
2017-03-21T01:28:31.919Z,0
2017-03-21T01:29:12.392Z,0
2017-03-21T01:29:52.891Z,0
2017-03-21T01:30:33.363Z,0
2017-03-21T01:31:13.816Z,0
2017-03-21T01:31:54.352Z,0
2017-03-21T01:32:34.824Z,0
2017-03-21T01:33:15.319Z,0
2017-03-21T01:33:55.800Z,0
2017-03-21T01:34:36.267Z,0
2017-03-21T01:35:16.780Z,0
2017-03-21T01:35:57.265Z,0
2017-03-21T01:36:37.763Z,0
2017-03-21T01:37:18.233Z,0
2017-03-21T01:37:58.708Z,0
2017-03-21T01:38:39.188Z,0
2017-03-21T01:39:19.699Z,0
2017-03-21T01:40:00.178Z,0
2017-03-21T01:40:40.682Z,0
2017-03-21T01:41:21.176Z,0
2017-03-21T01:42:01.643Z,0
2017-03-21T01:42:42.150Z,0
2017-03-21T01:43:22.604Z,0
2017-03-21T01:44:03.106Z,0
2017-03-21T01:44:43.569Z,0
2017-03-21T01:45:24.014Z,0
2017-03-21T01:46:04.516Z,0
2017-03-21T01:46:44.988Z,0
2017-03-21T01:47:25.464Z,0
2017-03-21T01:48:05.938Z,0
2017-03-21T01:48:46.439Z,0
2017-03-21T01:49:26.920Z,0
2017-03-21T01:50:07.389Z,0
2017-03-21T01:50:47.882Z,0
2017-03-21T01:51:28.396Z,0
2017-03-21T01:52:08.951Z,0
2017-03-21T01:52:49.392Z,0
2017-03-21T01:53:29.911Z,0
2017-03-21T01:54:10.393Z,0
2017-03-21T01:54:50.911Z,0
2017-03-21T01:55:31.374Z,0
2017-03-21T01:56:11.838Z,0
2017-03-21T01:56:52.310Z,0
2017-03-21T01:57:32.813Z,0
2017-03-21T01:58:13.262Z,0
2017-03-21T01:58:53.772Z,0
2017-03-21T01:59:34.254Z,0
2017-03-21T02:00:14.750Z,0
2017-03-21T02:00:55.218Z,0
2017-03-21T02:01:35.708Z,0
2017-03-21T02:02:16.210Z,0
2017-03-21T02:02:56.708Z,0
2017-03-21T02:03:37.181Z,0
2017-03-21T02:04:17.655Z,0
2017-03-21T02:04:58.159Z,0
2017-03-21T02:05:38.643Z,0
2017-03-21T02:06:19.109Z,0
2017-03-21T02:06:59.559Z,0
2017-03-21T02:07:40.074Z,0
2017-03-21T02:08:20.555Z,0
2017-03-21T02:09:01.049Z,0
2017-03-21T02:09:41.504Z,0
2017-03-21T02:10:22.035Z,0
2017-03-21T02:11:02.500Z,0
2017-03-21T02:11:42.965Z,0
2017-03-21T02:12:23.440Z,0
2017-03-21T02:13:03.906Z,0
2017-03-21T02:13:44.393Z,0
2017-03-21T02:14:24.898Z,0
2017-03-21T02:15:05.356Z,0
2017-03-21T02:15:45.835Z,0
2017-03-21T02:16:26.312Z,0
2017-03-21T02:17:06.788Z,0
2017-03-21T02:17:47.288Z,0
2017-03-21T02:18:27.760Z,0
2017-03-21T02:19:08.237Z,0
2017-03-21T02:19:48.701Z,0
2017-03-21T02:20:29.187Z,0
2017-03-21T02:21:09.680Z,0
2017-03-21T02:21:50.159Z,0
2017-03-21T02:22:30.628Z,0
2017-03-21T02:23:11.117Z,0
2017-03-21T02:23:51.594Z,0
2017-03-21T02:24:32.071Z,0
2017-03-21T02:25:12.562Z,0
2017-03-21T02:25:53.038Z,0
2017-03-21T02:26:33.537Z,0
2017-03-21T02:27:14.014Z,0
2017-03-21T02:27:54.513Z,0
2017-03-21T02:28:34.999Z,0
2017-03-21T02:29:15.487Z,0
2017-03-21T02:29:55.964Z,0
2017-03-21T02:30:36.443Z,0
2017-03-21T02:31:16.904Z,0
2017-03-21T02:31:57.402Z,0
2017-03-21T02:32:37.855Z,0
2017-03-21T02:33:18.302Z,0
2017-03-21T02:33:58.797Z,0
2017-03-21T02:34:39.271Z,0
2017-03-21T02:35:19.760Z,0
2017-03-21T02:36:00.226Z,0
2017-03-21T02:36:40.699Z,0
2017-03-21T02:37:21.211Z,0
2017-03-21T02:38:01.678Z,0
2017-03-21T02:38:42.198Z,0
2017-03-21T02:39:22.721Z,0
2017-03-21T02:40:03.159Z,0
2017-03-21T02:40:43.653Z,0
2017-03-21T02:41:24.134Z,0
2017-03-21T02:42:04.616Z,0
2017-03-21T02:42:45.082Z,0
2017-03-21T02:43:25.577Z,0
2017-03-21T02:44:06.090Z,0
2017-03-21T02:44:46.548Z,0
2017-03-21T02:45:27.038Z,0
2017-03-21T02:46:07.526Z,0
2017-03-21T02:46:48.016Z,0
2017-03-21T02:47:28.564Z,0
2017-03-21T02:48:09.058Z,0
2017-03-21T02:48:49.545Z,0
2017-03-21T02:49:29.983Z,0
2017-03-21T02:50:10.460Z,0
2017-03-21T02:50:50.905Z,0
2017-03-21T02:51:31.378Z,0
2017-03-21T02:52:11.880Z,0
2017-03-21T02:52:52.329Z,0
2017-03-21T02:53:32.807Z,0
2017-03-21T02:54:13.296Z,0
2017-03-21T02:54:53.819Z,0
2017-03-21T02:55:34.312Z,0
2017-03-21T02:56:14.810Z,0
2017-03-21T02:56:55.271Z,0
2017-03-21T02:57:35.755Z,0
2017-03-21T02:58:16.239Z,0
2017-03-21T02:58:56.731Z,0
2017-03-21T02:59:37.233Z,0
2017-03-21T03:00:17.702Z,0
2017-03-21T03:00:58.156Z,0
2017-03-21T03:01:38.666Z,0
2017-03-21T03:02:19.130Z,0
2017-03-21T03:02:59.613Z,0
2017-03-21T03:03:40.104Z,0
2017-03-21T03:04:20.573Z,0
2017-03-21T03:05:01.042Z,0
2017-03-21T03:05:41.520Z,0
2017-03-21T03:06:22.016Z,0
2017-03-21T03:07:02.516Z,0
2017-03-21T03:07:43.006Z,0
2017-03-21T03:08:23.483Z,0
2017-03-21T03:09:03.960Z,0
2017-03-21T03:09:44.431Z,0
2017-03-21T03:10:24.891Z,0
2017-03-21T03:11:05.379Z,0
2017-03-21T03:11:45.864Z,0
2017-03-21T03:12:26.324Z,0
2017-03-21T03:13:06.825Z,0
2017-03-21T03:13:47.263Z,0
2017-03-21T03:14:27.791Z,0
2017-03-21T03:15:08.276Z,0
2017-03-21T03:15:48.783Z,0
2017-03-21T03:16:29.255Z,0
2017-03-21T03:17:09.729Z,0
2017-03-21T03:17:50.235Z,0
2017-03-21T03:18:30.730Z,0
2017-03-21T03:19:11.228Z,0
2017-03-21T03:19:51.710Z,0
2017-03-21T03:20:32.176Z,0
2017-03-21T03:21:12.646Z,0
2017-03-21T03:21:53.135Z,0
2017-03-21T03:22:33.639Z,0
2017-03-21T03:23:14.164Z,0
2017-03-21T03:23:54.665Z,0
2017-03-21T03:24:35.085Z,0
2017-03-21T03:25:15.563Z,0
2017-03-21T03:25:56.043Z,0
2017-03-21T03:26:36.552Z,0
2017-03-21T03:27:17.038Z,0
2017-03-21T03:27:57.509Z,0
2017-03-21T03:28:38.010Z,0
2017-03-21T03:29:18.475Z,0
2017-03-21T03:29:58.968Z,0
2017-03-21T03:30:39.475Z,0
2017-03-21T03:31:19.938Z,0
2017-03-21T03:32:00.397Z,0
2017-03-21T03:32:40.901Z,0
2017-03-21T03:33:21.385Z,0
2017-03-21T03:34:01.887Z,0
2017-03-21T03:34:42.343Z,0
2017-03-21T03:35:22.835Z,0
2017-03-21T03:36:03.333Z,0
2017-03-21T03:36:43.809Z,0
2017-03-21T03:37:24.269Z,0
2017-03-21T03:38:04.779Z,0
2017-03-21T03:38:45.226Z,0
2017-03-21T03:39:25.720Z,0
2017-03-21T03:40:06.190Z,0
2017-03-21T03:40:46.653Z,0
2017-03-21T03:41:27.132Z,0
2017-03-21T03:42:07.610Z,0
2017-03-21T03:42:48.091Z,0
2017-03-21T03:43:28.574Z,0
2017-03-21T03:44:09.092Z,0
2017-03-21T03:44:49.594Z,0
2017-03-21T03:45:30.068Z,0
2017-03-21T03:46:10.564Z,0
2017-03-21T03:46:51.055Z,0
2017-03-21T03:47:31.515Z,0
2017-03-21T03:48:11.981Z,0
2017-03-21T03:48:52.465Z,0
2017-03-21T03:49:32.937Z,0
2017-03-21T03:50:13.373Z,0
2017-03-21T03:50:53.899Z,0
2017-03-21T03:51:34.403Z,0
2017-03-21T03:52:14.873Z,0
2017-03-21T03:52:55.336Z,0
2017-03-21T03:53:35.832Z,0
2017-03-21T03:54:16.312Z,0
2017-03-21T03:54:56.789Z,0
2017-03-21T03:55:37.271Z,0
2017-03-21T03:56:17.751Z,0
2017-03-21T03:56:58.245Z,0
2017-03-21T03:57:38.734Z,0
2017-03-21T03:58:19.215Z,0
2017-03-21T03:58:59.711Z,0
2017-03-21T03:59:40.192Z,0
2017-03-21T04:00:20.705Z,0
2017-03-21T04:01:01.193Z,0
2017-03-21T04:01:41.686Z,0
2017-03-21T04:02:22.201Z,0
2017-03-21T04:03:02.682Z,0
2017-03-21T04:03:43.156Z,0
2017-03-21T04:04:23.641Z,0
2017-03-21T04:05:04.124Z,0
2017-03-21T04:05:44.579Z,0
2017-03-21T04:06:25.083Z,0
2017-03-21T04:07:05.544Z,0
2017-03-21T04:07:46.065Z,0
2017-03-21T04:08:26.544Z,0
2017-03-21T04:09:07.035Z,0
2017-03-21T04:09:47.528Z,0
2017-03-21T04:10:27.993Z,0
2017-03-21T04:11:08.491Z,0
2017-03-21T04:11:48.975Z,0
2017-03-21T04:12:29.411Z,0
2017-03-21T04:13:09.880Z,0
2017-03-21T04:13:50.365Z,0
2017-03-21T04:14:31.009Z,0
2017-03-21T04:15:11.510Z,0
2017-03-21T04:15:51.986Z,0
2017-03-21T04:16:32.476Z,0
2017-03-21T04:17:12.964Z,0
2017-03-21T04:17:53.421Z,0
2017-03-21T04:18:33.918Z,0
2017-03-21T04:19:14.414Z,0
2017-03-21T04:19:54.894Z,0
2017-03-21T04:20:35.368Z,0
2017-03-21T04:21:15.842Z,0
2017-03-21T04:21:56.317Z,0
2017-03-21T04:22:36.838Z,0
2017-03-21T04:23:17.318Z,0
2017-03-21T04:23:57.788Z,0
2017-03-21T04:24:38.233Z,0
2017-03-21T04:25:18.779Z,0
2017-03-21T04:25:59.251Z,0
2017-03-21T04:26:39.761Z,0
2017-03-21T04:27:20.229Z,0
2017-03-21T04:28:00.703Z,0
2017-03-21T04:28:41.121Z,0
2017-03-21T04:29:21.595Z,0
2017-03-21T04:30:02.102Z,0
2017-03-21T04:30:42.578Z,0
2017-03-21T04:31:23.045Z,0
2017-03-21T04:32:03.517Z,0
2017-03-21T04:32:44.037Z,0
2017-03-21T04:33:24.527Z,0
2017-03-21T04:34:04.993Z,0
2017-03-21T04:34:45.489Z,0
2017-03-21T04:35:26.014Z,0
2017-03-21T04:36:06.483Z,0
2017-03-21T04:36:46.984Z,0
2017-03-21T04:37:27.518Z,0
2017-03-21T04:38:07.972Z,0
2017-03-21T04:38:48.440Z,0
2017-03-21T04:39:28.934Z,0
2017-03-21T04:40:09.393Z,0
2017-03-21T04:40:49.880Z,0
2017-03-21T04:41:30.372Z,0
2017-03-21T04:42:10.866Z,0
2017-03-21T04:42:51.378Z,0
2017-03-21T04:43:31.854Z,0
2017-03-21T04:44:12.341Z,0
2017-03-21T04:44:52.772Z,0
2017-03-21T04:45:33.304Z,0
2017-03-21T04:46:13.791Z,0
2017-03-21T04:46:54.315Z,0
2017-03-21T04:47:34.788Z,0
2017-03-21T04:48:15.264Z,0
2017-03-21T04:48:55.738Z,0
2017-03-21T04:49:36.230Z,0
2017-03-21T04:50:16.706Z,0
2017-03-21T04:50:57.159Z,0
2017-03-21T04:51:37.628Z,0
2017-03-21T04:52:18.117Z,0
2017-03-21T04:52:58.609Z,0
2017-03-21T04:53:39.060Z,0
2017-03-21T04:54:19.550Z,0
2017-03-21T04:55:00.034Z,0
2017-03-21T04:55:40.546Z,0
2017-03-21T04:56:21.005Z,0
2017-03-21T04:57:01.493Z,0
2017-03-21T04:57:42.003Z,0
2017-03-21T04:58:22.475Z,0
2017-03-21T04:59:02.941Z,0
2017-03-21T04:59:43.417Z,0
2017-03-21T05:00:23.914Z,0
2017-03-21T05:01:04.401Z,0
2017-03-21T05:01:44.865Z,0
2017-03-21T05:02:25.368Z,0
2017-03-21T05:03:05.878Z,0
2017-03-21T05:03:46.391Z,0
2017-03-21T05:04:26.873Z,0
2017-03-21T05:05:07.379Z,0
2017-03-21T05:05:47.843Z,0
2017-03-21T05:06:28.336Z,0
2017-03-21T05:07:08.822Z,0
2017-03-21T05:07:49.285Z,0
2017-03-21T05:08:29.779Z,0
2017-03-21T05:09:10.258Z,0
2017-03-21T05:09:50.714Z,0
2017-03-21T05:10:31.211Z,0
2017-03-21T05:11:11.693Z,0
2017-03-21T05:11:52.174Z,0
2017-03-21T05:12:32.749Z,0
2017-03-21T05:13:13.272Z,0
2017-03-21T05:13:53.721Z,0
2017-03-21T05:14:34.236Z,0
2017-03-21T05:15:14.861Z,0
2017-03-21T05:15:55.361Z,0
2017-03-21T05:16:35.803Z,0
2017-03-21T05:17:16.314Z,5
2017-03-21T05:17:56.805Z,5
2017-03-21T05:18:37.340Z,5
2017-03-21T05:19:17.795Z,5
2017-03-21T05:19:58.314Z,5
2017-03-21T05:20:38.787Z,5
2017-03-21T05:21:19.272Z,5
2017-03-21T05:21:59.758Z,5
2017-03-21T05:22:40.235Z,5
2017-03-21T05:23:20.740Z,5
2017-03-21T05:24:01.238Z,10
2017-03-21T05:24:41.775Z,10
2017-03-21T05:25:22.257Z,10
2017-03-21T05:26:02.888Z,10
2017-03-21T05:26:43.404Z,10
2017-03-21T05:27:23.968Z,10
2017-03-21T05:28:04.499Z,10
2017-03-21T05:28:45.113Z,10
2017-03-21T05:29:25.613Z,15
2017-03-21T05:30:06.093Z,15
2017-03-21T05:30:46.594Z,15
2017-03-21T05:31:28.697Z,15
2017-03-21T05:32:09.227Z,15
2017-03-21T05:32:49.733Z,15
2017-03-21T05:33:30.191Z,15
2017-03-21T05:34:10.667Z,20
2017-03-21T05:34:51.156Z,20
2017-03-21T05:35:31.641Z,20
2017-03-21T05:36:12.135Z,20
2017-03-21T05:36:52.623Z,20
2017-03-21T05:37:33.113Z,20
2017-03-21T05:38:13.595Z,25
2017-03-21T05:38:54.074Z,25
2017-03-21T05:39:34.555Z,25
2017-03-21T05:40:15.022Z,25
2017-03-21T05:40:55.516Z,25
2017-03-21T05:41:35.965Z,30
2017-03-21T05:42:16.444Z,30
2017-03-21T05:42:56.933Z,30
2017-03-21T05:43:37.387Z,30
2017-03-21T05:44:17.883Z,30
2017-03-21T05:44:58.353Z,30
2017-03-21T05:45:38.818Z,35
2017-03-21T05:46:19.340Z,35
2017-03-21T05:46:59.774Z,35
2017-03-21T05:47:40.285Z,35
2017-03-21T05:48:20.727Z,35
2017-03-21T05:49:01.213Z,40
2017-03-21T05:49:41.757Z,40
2017-03-21T05:50:22.252Z,40
2017-03-21T05:51:02.769Z,40
2017-03-21T05:51:43.233Z,40
2017-03-21T05:52:23.722Z,40
2017-03-21T05:53:04.174Z,45
2017-03-21T05:53:44.669Z,45
2017-03-21T05:54:25.138Z,45
2017-03-21T05:55:05.617Z,45
2017-03-21T05:55:46.085Z,45
2017-03-21T05:56:26.510Z,50
2017-03-21T05:57:06.997Z,50
2017-03-21T05:57:47.454Z,50
2017-03-21T05:58:27.957Z,50
2017-03-21T05:59:08.391Z,50
2017-03-21T05:59:48.907Z,55
2017-03-21T06:00:29.381Z,55
2017-03-21T06:01:09.985Z,55
2017-03-21T06:01:50.593Z,55
2017-03-21T06:02:31.279Z,55
2017-03-21T06:03:11.721Z,55
2017-03-21T06:03:52.192Z,60
2017-03-21T06:04:32.801Z,60
2017-03-21T06:05:13.337Z,60
2017-03-21T06:05:53.786Z,60
2017-03-21T06:06:34.294Z,60
2017-03-21T06:07:14.756Z,60
2017-03-21T06:07:55.270Z,65
2017-03-21T06:08:35.738Z,65
2017-03-21T06:09:16.227Z,65
2017-03-21T06:09:56.702Z,65
2017-03-21T06:10:37.178Z,65
2017-03-21T06:11:17.643Z,70
2017-03-21T06:11:58.192Z,70
2017-03-21T06:12:38.651Z,70
2017-03-21T06:13:19.164Z,70
2017-03-21T06:13:59.597Z,70
2017-03-21T06:14:40.044Z,70
2017-03-21T06:15:20.510Z,75
2017-03-21T06:16:00.992Z,75
2017-03-21T06:16:41.502Z,75
2017-03-21T06:17:22.011Z,70
2017-03-21T06:18:03.343Z,75
2017-03-21T06:18:43.794Z,75
2017-03-21T06:19:24.330Z,75
2017-03-21T06:20:04.818Z,80
2017-03-21T06:20:45.334Z,80
2017-03-21T06:21:25.990Z,80
2017-03-21T06:22:06.475Z,80
2017-03-21T06:22:46.974Z,80
2017-03-21T06:23:27.464Z,80
2017-03-21T06:24:07.917Z,85
2017-03-21T06:24:48.392Z,85
2017-03-21T06:25:28.898Z,85
2017-03-21T06:26:09.396Z,85
2017-03-21T06:26:49.859Z,85
2017-03-21T06:27:30.363Z,90
2017-03-21T06:28:10.836Z,90
2017-03-21T06:28:51.301Z,95
2017-03-21T06:29:31.771Z,100
2017-03-21T06:30:12.237Z,95
2017-03-21T06:30:52.706Z,100
2017-03-21T06:31:33.199Z,90
2017-03-21T06:32:13.652Z,90
2017-03-21T06:32:54.160Z,90
2017-03-21T06:33:34.643Z,90
2017-03-21T06:34:15.211Z,95
2017-03-21T06:34:55.680Z,95
2017-03-21T06:35:36.141Z,90
2017-03-21T06:36:16.614Z,95
2017-03-21T06:36:57.107Z,95
2017-03-21T06:37:37.594Z,95
2017-03-21T06:38:18.032Z,95
2017-03-21T06:38:58.500Z,95
2017-03-21T06:39:38.968Z,95
2017-03-21T06:40:19.464Z,90
2017-03-21T06:40:59.916Z,90
2017-03-21T06:41:40.360Z,100
2017-03-21T06:42:20.893Z,100
2017-03-21T06:43:01.358Z,105
2017-03-21T06:43:41.838Z,105
2017-03-21T06:44:22.296Z,105
2017-03-21T06:45:02.797Z,105
2017-03-21T06:45:43.236Z,105
2017-03-21T06:46:23.736Z,110
2017-03-21T06:47:04.251Z,120
2017-03-21T06:47:44.735Z,115
2017-03-21T06:48:25.219Z,130
2017-03-21T06:49:05.734Z,110
2017-03-21T06:49:46.166Z,120
2017-03-21T06:50:26.667Z,115
2017-03-21T06:51:07.158Z,110
2017-03-21T06:51:47.719Z,120
2017-03-21T06:52:28.234Z,115
2017-03-21T06:53:08.788Z,115
2017-03-21T06:53:49.261Z,115
2017-03-21T06:54:29.693Z,115
2017-03-21T06:55:10.337Z,105
2017-03-21T06:58:05.508Z,125
2017-03-21T06:58:45.923Z,110
2017-03-21T06:59:26.400Z,115
2017-03-21T07:00:06.880Z,115
2017-03-21T07:00:47.376Z,120
2017-03-21T07:01:27.802Z,120
2017-03-21T07:02:08.291Z,125
2017-03-21T07:02:48.779Z,130
2017-03-21T07:03:29.258Z,120
2017-03-21T07:04:09.796Z,120
2017-03-21T07:04:50.261Z,120
2017-03-21T07:05:30.741Z,120
2017-03-21T07:06:11.199Z,125
2017-03-21T07:06:51.723Z,135
2017-03-21T07:07:32.191Z,135
2017-03-21T07:08:12.654Z,135
2017-03-21T07:08:53.119Z,170
2017-03-21T07:09:33.614Z,160
2017-03-21T07:10:14.098Z,130
2017-03-21T07:10:54.620Z,145
2017-03-21T07:11:35.057Z,150
2017-03-21T07:12:15.596Z,145
2017-03-21T07:12:56.060Z,140
2017-03-21T07:13:36.547Z,145
2017-03-21T07:14:17.033Z,145
2017-03-21T07:14:57.502Z,165
2017-03-21T07:15:37.958Z,165
2017-03-21T07:16:18.419Z,140
2017-03-21T07:16:58.883Z,125
2017-03-21T07:17:39.391Z,125
2017-03-21T07:18:19.908Z,125
2017-03-21T07:19:00.365Z,125
2017-03-21T07:19:40.857Z,150
2017-03-21T07:20:21.357Z,140
2017-03-21T07:21:01.814Z,150
2017-03-21T07:21:42.321Z,160
2017-03-21T07:22:22.814Z,175
2017-03-21T07:23:03.296Z,165
2017-03-21T07:23:43.725Z,165
2017-03-21T07:24:24.192Z,170
2017-03-21T07:25:04.655Z,175
2017-03-21T07:25:45.185Z,190
2017-03-21T07:26:25.696Z,235
2017-03-21T07:27:06.181Z,190
2017-03-21T07:27:46.613Z,155
2017-03-21T07:28:27.085Z,180
2017-03-21T07:29:07.653Z,165
2017-03-21T07:29:51.062Z,150
2017-03-21T07:30:31.533Z,145
2017-03-21T07:31:12.070Z,165
2017-03-21T07:31:52.546Z,190
2017-03-21T07:32:33.032Z,160
2017-03-21T07:33:13.543Z,150
2017-03-21T07:33:54.027Z,180
2017-03-21T07:34:34.496Z,160
2017-03-21T07:35:14.962Z,135
2017-03-21T07:35:55.483Z,135
2017-03-21T07:36:36.442Z,135
2017-03-21T07:37:16.929Z,170
2017-03-21T07:37:57.438Z,155
2017-03-21T07:38:37.905Z,145
2017-03-21T07:39:18.463Z,150
2017-03-21T07:40:00.037Z,155
2017-03-21T07:40:40.519Z,140
2017-03-21T07:41:21.033Z,145
2017-03-21T07:42:01.670Z,135
2017-03-21T07:42:42.486Z,160
2017-03-21T07:43:23.015Z,210
2017-03-21T07:44:03.495Z,230
2017-03-21T07:44:44.002Z,205
2017-03-21T07:45:24.439Z,180
2017-03-21T07:46:04.971Z,155
2017-03-21T07:46:45.443Z,140
2017-03-21T07:47:25.939Z,135
2017-03-21T07:48:06.465Z,135
2017-03-21T07:48:46.956Z,135
2017-03-21T07:49:27.452Z,145
2017-03-21T07:50:07.949Z,155
2017-03-21T07:50:48.471Z,170
2017-03-21T07:51:28.964Z,180
2017-03-21T07:52:12.644Z,270
2017-03-21T07:52:52.033Z,235
2017-03-21T07:53:32.725Z,230
2017-03-21T07:54:13.339Z,200
2017-03-21T07:54:54.393Z,205
2017-03-21T07:55:34.899Z,275
2017-03-21T07:56:15.361Z,200
2017-03-21T07:56:55.851Z,180
2017-03-21T07:57:38.268Z,235
2017-03-21T07:58:23.724Z,240
2017-03-21T07:59:04.001Z,215
2017-03-21T07:59:45.963Z,205
2017-03-21T08:00:26.582Z,200
2017-03-21T08:01:07.763Z,200
2017-03-21T08:01:48.209Z,180
2017-03-21T08:02:28.702Z,170
2017-03-21T08:03:09.176Z,170
2017-03-21T08:03:49.903Z,175
2017-03-21T08:04:30.107Z,160
2017-03-21T08:05:10.568Z,155
2017-03-21T08:05:51.135Z,160
2017-03-21T08:06:31.606Z,180
2017-03-21T08:07:12.113Z,180
2017-03-21T08:07:52.683Z,220
2017-03-21T08:08:38.492Z,230
2017-03-21T08:09:19.048Z,250
2017-03-21T08:09:59.629Z,285
2017-03-21T08:10:40.140Z,275
2017-03-21T08:11:20.620Z,230
2017-03-21T08:12:01.141Z,275
2017-03-21T08:12:41.632Z,230
2017-03-21T08:13:22.071Z,255
2017-03-21T08:14:02.524Z,265
2017-03-21T08:14:43.025Z,255
2017-03-21T08:15:23.516Z,250
2017-03-21T08:16:04.262Z,225
2017-03-21T08:16:44.727Z,220
2017-03-21T08:17:25.265Z,195
2017-03-21T08:18:05.683Z,190
2017-03-21T08:18:46.163Z,210
2017-03-21T08:19:26.939Z,220
2017-03-21T08:20:07.360Z,235
2017-03-21T08:20:47.836Z,250
2017-03-21T08:21:28.359Z,265
2017-03-21T08:22:08.939Z,235
2017-03-21T08:22:49.449Z,295
2017-03-21T08:23:30.002Z,250
2017-03-21T08:24:10.518Z,180
2017-03-21T08:24:50.993Z,160
2017-03-21T08:25:31.518Z,165
2017-03-21T08:26:12.118Z,195
2017-03-21T08:26:52.650Z,155
2017-03-21T08:27:33.115Z,165
2017-03-21T08:29:49.518Z,250
2017-03-21T08:30:30.032Z,325
2017-03-21T08:31:10.530Z,305
2017-03-21T08:31:50.979Z,285
2017-03-21T08:32:31.520Z,270
2017-03-21T08:33:11.961Z,310
2017-03-21T08:33:52.494Z,325
2017-03-21T08:34:33.160Z,340
2017-03-21T08:35:13.817Z,330
2017-03-21T08:35:56.182Z,255
2017-03-21T08:36:36.853Z,280
2017-03-21T08:37:17.543Z,340
2017-03-21T08:37:58.419Z,290
2017-03-21T08:38:38.889Z,255
2017-03-21T08:39:19.481Z,255
2017-03-21T08:39:59.999Z,215
2017-03-21T08:40:40.403Z,250
2017-03-21T08:41:20.944Z,240
2017-03-21T08:42:01.428Z,250
2017-03-21T08:42:41.900Z,255
2017-03-21T08:43:22.895Z,235
2017-03-21T08:44:03.551Z,300
2017-03-21T08:44:44.046Z,270
2017-03-21T08:45:24.769Z,280
2017-03-21T08:46:05.557Z,250
2017-03-21T08:46:48.639Z,195
2017-03-21T08:47:29.155Z,170
2017-03-21T08:48:09.645Z,170
2017-03-21T08:48:50.164Z,160
2017-03-21T08:49:30.678Z,165
2017-03-21T08:50:11.166Z,200
2017-03-21T08:50:51.703Z,200
2017-03-21T08:51:32.208Z,190
2017-03-21T08:52:12.929Z,195
2017-03-21T08:52:53.410Z,200
2017-03-21T08:53:33.961Z,160
2017-03-21T08:54:14.491Z,155
2017-03-21T08:54:55.050Z,155
2017-03-21T08:55:35.603Z,160
2017-03-21T08:56:16.304Z,165
2017-03-21T08:56:56.872Z,175
2017-03-21T08:57:37.312Z,190
2017-03-21T08:58:18.169Z,185
2017-03-21T08:58:58.631Z,165
2017-03-21T08:59:39.691Z,170
2017-03-21T09:00:20.221Z,185
2017-03-21T09:01:00.813Z,205
2017-03-21T09:01:41.501Z,275
2017-03-21T09:02:22.149Z,315
2017-03-21T09:03:02.532Z,340
2017-03-21T09:03:43.461Z,305
2017-03-21T09:04:23.966Z,335
2017-03-21T09:05:05.124Z,290
2017-03-21T09:05:46.341Z,285
2017-03-21T09:06:26.903Z,295
2017-03-21T09:07:07.442Z,255
2017-03-21T09:07:48.126Z,335
2017-03-21T09:10:16.119Z,265
2017-03-21T09:10:56.515Z,200
2017-03-21T09:11:37.109Z,205
2017-03-21T09:12:17.661Z,210
2017-03-21T09:12:58.194Z,205
2017-03-21T09:13:38.673Z,215
2017-03-21T09:14:19.147Z,255
2017-03-21T09:15:00.068Z,185
2017-03-21T09:15:40.640Z,220
2017-03-21T09:16:21.110Z,280
2017-03-21T09:17:01.634Z,260
2017-03-21T09:17:42.128Z,340
2017-03-21T09:18:22.570Z,365
2017-03-21T09:19:03.082Z,285
2017-03-21T09:19:43.665Z,320
2017-03-21T09:20:24.127Z,310
2017-03-21T09:21:04.682Z,340
2017-03-21T09:21:45.122Z,310
2017-03-21T09:22:25.609Z,360
2017-03-21T09:23:06.088Z,400
2017-03-21T09:23:46.657Z,390
2017-03-21T09:24:27.109Z,395
2017-03-21T09:25:07.672Z,315
2017-03-21T09:25:48.193Z,325
2017-03-21T09:26:28.716Z,305
2017-03-21T09:27:09.218Z,250
2017-03-21T09:27:49.799Z,245
2017-03-21T09:28:30.514Z,335
2017-03-21T09:29:11.068Z,390
2017-03-21T09:29:51.570Z,335
2017-03-21T09:30:32.164Z,350
2017-03-21T09:31:12.554Z,385
2017-03-21T09:31:53.087Z,335
2017-03-21T09:32:35.551Z,230
2017-03-21T09:33:15.732Z,325
2017-03-21T09:33:56.621Z,425
2017-03-21T09:34:37.197Z,445
2017-03-21T09:35:19.883Z,350
2017-03-21T09:36:00.645Z,385
2017-03-21T09:36:41.019Z,440
2017-03-21T09:37:22.175Z,475
2017-03-21T09:38:02.667Z,455
2017-03-21T09:38:43.251Z,475
2017-03-21T09:39:23.712Z,450
2017-03-21T09:40:04.216Z,415
2017-03-21T09:40:44.734Z,350
2017-03-21T09:41:25.227Z,330
2017-03-21T09:42:05.738Z,390
2017-03-21T09:42:46.169Z,330
2017-03-21T09:43:26.666Z,375
2017-03-21T09:44:07.182Z,385
2017-03-21T09:44:48.580Z,400
2017-03-21T09:45:29.069Z,295
2017-03-21T09:46:09.570Z,280
2017-03-21T09:46:50.043Z,355
2017-03-21T09:47:30.715Z,335
2017-03-21T09:48:11.403Z,275
2017-03-21T09:48:53.229Z,190
2017-03-21T09:49:33.692Z,195
2017-03-21T09:50:14.176Z,180